createdAt,value
2017-07-06T00:02:04.754Z,2.80
2017-07-06T00:04:32.681Z,2.83
2017-07-06T00:07:00.618Z,3.23
2017-07-06T00:09:28.542Z,2.80
2017-07-06T00:11:56.473Z,2.70
2017-07-06T00:14:24.408Z,3.43
2017-07-06T00:16:52.329Z,3.60
2017-07-06T00:19:20.249Z,3.10
2017-07-06T00:21:48.169Z,2.80
2017-07-06T00:24:16.102Z,2.90
2017-07-06T00:26:44.046Z,2.97
2017-07-06T00:29:11.974Z,3.17
2017-07-06T00:31:39.893Z,3.07
2017-07-06T00:34:07.809Z,3.10
2017-07-06T00:36:35.730Z,3.10
2017-07-06T00:39:03.722Z,3.93
2017-07-06T00:41:31.638Z,3.50
2017-07-06T00:43:59.563Z,4.20
2017-07-06T00:46:27.477Z,3.80
2017-07-06T00:48:55.401Z,4.23
2017-07-06T00:51:23.348Z,4.00
2017-07-06T00:53:51.274Z,3.50
2017-07-06T00:56:19.186Z,3.93
2017-07-06T00:58:47.101Z,3.80
2017-07-06T01:01:15.035Z,5.47
2017-07-06T01:03:42.990Z,4.13
2017-07-06T01:06:10.916Z,3.77
2017-07-06T01:08:38.839Z,4.80
2017-07-06T01:11:07.075Z,4.07
2017-07-06T01:13:35.001Z,4.70
2017-07-06T01:16:02.951Z,3.70
2017-07-06T01:18:30.865Z,4.20
2017-07-06T01:20:58.779Z,3.70
2017-07-06T01:23:26.686Z,3.83
2017-07-06T01:25:54.600Z,3.73
2017-07-06T01:28:22.544Z,3.80
2017-07-06T01:30:50.464Z,3.90
2017-07-06T01:33:18.379Z,4.10
2017-07-06T01:35:46.314Z,4.07
2017-07-06T01:38:14.240Z,3.63
2017-07-06T01:40:42.193Z,3.80
2017-07-06T01:43:10.126Z,4.20
2017-07-06T01:45:38.045Z,4.23
2017-07-06T01:48:05.973Z,3.60
2017-07-06T01:50:33.917Z,4.07
2017-07-06T01:53:01.861Z,3.90
2017-07-06T01:55:29.811Z,3.73
2017-07-06T01:57:57.750Z,4.20
2017-07-06T02:00:25.674Z,4.20
2017-07-06T02:02:53.589Z,3.63
2017-07-06T02:05:21.532Z,4.37
2017-07-06T02:07:49.441Z,4.30
2017-07-06T02:10:17.354Z,3.77
2017-07-06T02:12:45.265Z,4.37
2017-07-06T02:15:13.182Z,3.20
2017-07-06T02:17:41.101Z,3.60
2017-07-06T02:20:09.017Z,4.60
2017-07-06T02:22:36.950Z,4.60
2017-07-06T02:25:04.873Z,4.53
2017-07-06T02:27:32.787Z,4.57
2017-07-06T02:30:00.700Z,5.40
2017-07-06T02:32:28.623Z,4.77
2017-07-06T02:34:56.555Z,5.70
2017-07-06T02:37:24.474Z,4.70
2017-07-06T02:39:52.389Z,5.20
2017-07-06T02:42:20.315Z,5.00
2017-07-06T02:44:48.226Z,6.03
2017-07-06T02:47:16.166Z,5.30
2017-07-06T02:49:44.106Z,6.27
2017-07-06T02:52:12.018Z,5.80
2017-07-06T02:54:39.946Z,6.00
2017-07-06T02:57:07.874Z,5.80
2017-07-06T02:59:35.814Z,6.60
2017-07-06T03:02:04.505Z,6.43
2017-07-06T03:04:32.417Z,6.33
2017-07-06T03:07:00.354Z,6.33
2017-07-06T03:09:28.282Z,6.67
2017-07-06T03:11:56.213Z,6.30
2017-07-06T03:14:24.129Z,6.00
2017-07-06T03:16:52.052Z,7.77
2017-07-06T03:19:19.977Z,6.30
2017-07-06T03:21:47.892Z,6.67
2017-07-06T03:24:15.822Z,6.83
2017-07-06T03:26:43.734Z,6.43
2017-07-06T03:29:11.644Z,6.07
2017-07-06T03:31:39.561Z,6.07
2017-07-06T03:34:07.479Z,5.63
2017-07-06T03:36:35.423Z,5.87
2017-07-06T03:39:03.389Z,6.70
2017-07-06T03:41:31.329Z,6.00
2017-07-06T03:43:59.247Z,6.40
2017-07-06T03:46:27.155Z,6.20
2017-07-06T03:48:55.088Z,6.00
2017-07-06T03:51:23.006Z,5.63
2017-07-06T03:53:50.925Z,5.70
2017-07-06T03:56:18.849Z,5.63
2017-07-06T03:58:46.783Z,6.47
2017-07-06T04:01:14.762Z,5.13
2017-07-06T04:03:42.682Z,5.00
2017-07-06T04:06:10.598Z,5.73
2017-07-06T04:08:38.517Z,5.20
2017-07-06T04:11:06.687Z,5.33
2017-07-06T04:13:34.729Z,5.80
2017-07-06T04:16:02.640Z,5.27
2017-07-06T04:18:30.566Z,5.13
2017-07-06T04:20:58.504Z,6.03
2017-07-06T04:23:26.430Z,5.13
2017-07-06T04:25:54.366Z,6.37
2017-07-06T04:28:22.287Z,5.90
2017-07-06T04:30:50.206Z,5.90
2017-07-06T04:33:18.135Z,6.30
2017-07-06T04:35:46.070Z,6.80
2017-07-06T04:38:14.021Z,7.00
2017-07-06T04:40:41.938Z,7.10
2017-07-06T04:43:09.848Z,7.20
2017-07-06T04:45:37.765Z,6.07
2017-07-06T04:48:05.676Z,10.33
2017-07-06T04:50:33.779Z,10.70
2017-07-06T04:53:01.705Z,13.40
2017-07-06T04:55:29.628Z,16.20
2017-07-06T04:57:57.553Z,19.77
2017-07-06T05:00:25.474Z,21.77
2017-07-06T05:02:53.410Z,21.10
2017-07-06T05:05:21.328Z,23.30
2017-07-06T05:07:49.254Z,23.30
2017-07-06T05:10:17.176Z,25.80
2017-07-06T05:12:45.101Z,27.07
2017-07-06T05:15:13.039Z,25.93
2017-07-06T05:17:40.976Z,27.30
2017-07-06T05:20:08.922Z,28.83
2017-07-06T05:22:36.841Z,28.70
2017-07-06T05:25:04.764Z,30.30
2017-07-06T05:27:32.693Z,27.23
2017-07-06T05:30:00.633Z,30.80
2017-07-06T05:32:28.915Z,30.00
2017-07-06T05:34:56.830Z,27.53
2017-07-06T05:37:25.008Z,29.90
2017-07-06T05:39:52.957Z,28.97
2017-07-06T05:42:20.885Z,26.50
2017-07-06T05:44:48.812Z,26.40
2017-07-06T05:47:16.743Z,27.00
2017-07-06T05:49:44.682Z,28.40
2017-07-06T05:52:12.641Z,25.77
2017-07-06T05:54:40.583Z,25.80
2017-07-06T05:57:08.773Z,22.30
2017-07-06T05:59:36.758Z,24.10
2017-07-06T06:02:04.690Z,22.73
2017-07-06T06:04:32.648Z,24.27
2017-07-06T06:07:00.595Z,22.93
2017-07-06T06:09:28.977Z,23.97
2017-07-06T06:11:56.925Z,23.80
2017-07-06T06:14:24.865Z,23.27
2017-07-06T06:16:52.814Z,23.80
2017-07-06T06:19:20.738Z,22.20
2017-07-06T06:21:48.662Z,21.00
2017-07-06T06:24:16.585Z,19.67
2017-07-06T06:26:44.498Z,16.70
2017-07-06T06:29:12.449Z,14.20
2017-07-06T06:31:40.382Z,12.53
2017-07-06T06:34:08.298Z,13.07
2017-07-06T06:36:36.214Z,11.87
2017-07-06T06:39:04.122Z,11.33
2017-07-06T06:41:32.062Z,10.70
2017-07-06T06:43:59.987Z,9.40
2017-07-06T06:46:27.919Z,9.07
2017-07-06T06:48:55.833Z,8.33
2017-07-06T06:51:23.758Z,7.57
2017-07-06T06:53:51.870Z,7.10
2017-07-06T06:56:19.801Z,6.93
2017-07-06T06:58:47.716Z,7.30
2017-07-06T07:01:15.637Z,6.47
2017-07-06T07:03:43.570Z,6.43
2017-07-06T07:06:11.746Z,6.33
2017-07-06T07:08:39.682Z,6.70
2017-07-06T07:11:07.605Z,6.73
2017-07-06T07:13:35.542Z,6.27
2017-07-06T07:16:03.477Z,6.30
2017-07-06T07:18:31.395Z,6.27
2017-07-06T07:20:59.321Z,6.50
2017-07-06T07:23:27.273Z,6.37
2017-07-06T07:25:55.195Z,6.10
2017-07-06T07:28:23.117Z,5.80
2017-07-06T07:30:51.045Z,6.40
2017-07-06T07:33:18.969Z,6.17
2017-07-06T07:35:46.918Z,5.77
2017-07-06T07:38:14.845Z,6.33
2017-07-06T07:40:42.778Z,5.50
2017-07-06T07:43:10.697Z,6.87
2017-07-06T07:45:38.631Z,5.70
2017-07-06T07:48:06.569Z,5.40
2017-07-06T07:50:34.514Z,5.50
2017-07-06T07:53:02.707Z,5.30
2017-07-06T07:55:30.638Z,5.07
2017-07-06T07:57:58.595Z,5.40
2017-07-06T08:00:26.559Z,5.13
2017-07-06T08:02:54.494Z,5.00
2017-07-06T08:05:22.458Z,5.07
2017-07-06T08:07:50.405Z,5.33
2017-07-06T08:10:18.326Z,5.30
2017-07-06T08:12:46.273Z,5.57
2017-07-06T08:15:14.207Z,5.70
2017-07-06T08:17:42.129Z,5.27
2017-07-06T08:20:10.060Z,5.10
2017-07-06T08:22:37.994Z,4.40
2017-07-06T08:25:05.933Z,4.47
2017-07-06T08:27:33.865Z,4.70
2017-07-06T08:30:01.794Z,4.67
2017-07-06T08:32:29.723Z,5.03
2017-07-06T08:34:57.650Z,4.80
2017-07-06T08:37:25.590Z,4.70
2017-07-06T08:39:53.537Z,5.00
2017-07-06T08:42:21.461Z,4.80
2017-07-06T08:44:49.415Z,4.70
2017-07-06T08:47:17.351Z,4.30
2017-07-06T08:49:45.310Z,5.10
2017-07-06T08:52:13.239Z,5.50
2017-07-06T08:54:41.177Z,4.53
2017-07-06T08:57:09.114Z,4.83
2017-07-06T08:59:37.045Z,5.70
2017-07-06T09:02:05.005Z,4.53
2017-07-06T09:04:32.945Z,4.53
2017-07-06T09:07:00.861Z,4.70
2017-07-06T09:09:28.993Z,4.00
2017-07-06T09:11:56.925Z,4.80
2017-07-06T09:14:24.895Z,4.57
2017-07-06T09:16:52.845Z,4.60
2017-07-06T09:19:20.807Z,4.77
2017-07-06T09:21:48.741Z,4.70
2017-07-06T09:24:16.686Z,4.73
2017-07-06T09:26:44.618Z,4.90
2017-07-06T09:29:12.555Z,4.17
2017-07-06T09:31:40.494Z,4.43
2017-07-06T09:34:08.414Z,5.07
2017-07-06T09:36:36.341Z,4.00
2017-07-06T09:39:04.338Z,4.20
2017-07-06T09:41:32.252Z,4.77
2017-07-06T09:44:00.182Z,4.90
2017-07-06T09:46:28.119Z,4.80
2017-07-06T09:48:56.167Z,3.97
2017-07-06T09:51:24.189Z,4.43
2017-07-06T09:53:52.117Z,4.20
2017-07-06T09:56:20.135Z,4.73
2017-07-06T09:58:48.071Z,3.87
2017-07-06T10:01:16.017Z,4.33
2017-07-06T10:03:43.966Z,4.67
2017-07-06T10:06:11.877Z,3.90
2017-07-06T10:08:39.830Z,4.07
2017-07-06T10:11:07.752Z,3.90
2017-07-06T10:13:35.681Z,4.40
2017-07-06T10:16:03.636Z,3.90
2017-07-06T10:18:31.558Z,4.37
2017-07-06T10:20:59.490Z,4.43
2017-07-06T10:23:28.129Z,4.67
2017-07-06T10:25:56.113Z,4.13
2017-07-06T10:28:24.075Z,4.03
2017-07-06T10:31:07.061Z,4.13
2017-07-06T10:33:35.030Z,4.10
2017-07-06T10:36:02.972Z,3.97
2017-07-06T10:38:30.897Z,3.60
2017-07-06T10:40:58.858Z,3.63
2017-07-06T10:43:26.823Z,4.40
2017-07-06T10:45:54.771Z,4.17
2017-07-06T10:48:22.722Z,4.00
2017-07-06T10:50:50.640Z,4.70
2017-07-06T10:53:18.591Z,4.17
2017-07-06T10:55:46.512Z,4.20
2017-07-06T10:58:14.483Z,4.13
2017-07-06T11:00:42.417Z,4.07
2017-07-06T11:03:10.818Z,4.13
2017-07-06T11:05:39.275Z,4.13
2017-07-06T11:08:07.211Z,3.77
2017-07-06T11:10:35.187Z,3.93
2017-07-06T11:13:03.119Z,3.50
2017-07-06T11:15:31.042Z,4.20
2017-07-06T11:17:58.968Z,4.23
2017-07-06T11:20:26.895Z,3.77
2017-07-06T11:22:54.872Z,3.50
2017-07-06T11:25:22.789Z,4.03
2017-07-06T11:27:50.722Z,3.97
2017-07-06T11:30:18.645Z,3.53
2017-07-06T11:32:46.583Z,4.63
2017-07-06T11:35:14.599Z,4.17
2017-07-06T11:37:42.546Z,5.10
2017-07-06T11:40:10.530Z,4.37
2017-07-06T11:42:38.461Z,5.03
2017-07-06T11:45:06.388Z,4.27
2017-07-06T11:47:34.346Z,4.73
2017-07-06T11:50:02.273Z,4.57
2017-07-06T11:52:30.201Z,5.30
2017-07-06T11:54:58.146Z,5.13
2017-07-06T11:57:26.070Z,5.10
2017-07-06T11:59:54.054Z,4.67
2017-07-06T12:02:22.040Z,5.23
2017-07-06T12:04:49.967Z,4.60
2017-07-06T12:07:18.427Z,5.13
2017-07-06T12:09:46.354Z,4.17
2017-07-06T12:12:14.309Z,5.00
2017-07-06T12:14:42.266Z,5.20
2017-07-06T12:17:10.224Z,5.30
2017-07-06T12:19:38.151Z,4.60
2017-07-06T12:22:06.094Z,4.57
2017-07-06T12:24:34.057Z,4.77
2017-07-06T12:27:02.009Z,4.83
2017-07-06T12:29:29.941Z,5.07
2017-07-06T12:31:57.882Z,5.00
2017-07-06T12:34:25.820Z,4.87
2017-07-06T12:36:53.773Z,4.33
2017-07-06T12:39:21.809Z,5.07
2017-07-06T12:41:49.753Z,4.10
2017-07-06T12:44:17.898Z,5.07
2017-07-06T12:46:45.973Z,5.07
2017-07-06T12:49:14.098Z,4.97
2017-07-06T12:51:42.259Z,4.83
2017-07-06T12:54:10.212Z,4.87
2017-07-06T12:56:38.255Z,5.00
2017-07-06T12:59:06.446Z,5.20
2017-07-06T13:01:34.499Z,5.07
2017-07-06T13:04:02.536Z,4.50
2017-07-06T13:06:30.735Z,5.20
2017-07-06T13:08:58.687Z,5.27
2017-07-06T13:11:26.601Z,5.23
2017-07-06T13:13:54.529Z,4.97
2017-07-06T13:16:22.473Z,4.93
2017-07-06T13:18:50.393Z,4.87
2017-07-06T13:21:18.531Z,5.00
2017-07-06T13:23:46.462Z,4.83
2017-07-06T13:26:14.397Z,4.73
2017-07-06T13:28:42.362Z,4.90
2017-07-06T13:31:10.273Z,4.87
2017-07-06T13:33:38.569Z,4.53
2017-07-06T13:36:06.517Z,4.90
2017-07-06T13:38:34.434Z,4.43
2017-07-06T13:41:02.378Z,4.70
2017-07-06T13:43:30.306Z,4.47
2017-07-06T13:45:58.224Z,4.00
2017-07-06T13:48:26.161Z,4.27
2017-07-06T13:50:54.123Z,4.50
2017-07-06T13:53:22.086Z,3.53
2017-07-06T13:55:50.013Z,4.40
2017-07-06T13:58:17.962Z,4.50
2017-07-06T14:00:45.902Z,4.10
2017-07-06T14:03:17.584Z,4.47
2017-07-06T14:05:45.853Z,4.63
2017-07-06T14:08:13.794Z,4.30
2017-07-06T14:10:41.719Z,4.37
2017-07-06T14:13:09.644Z,4.37
2017-07-06T14:15:37.592Z,3.93
2017-07-06T14:18:05.525Z,4.43
2017-07-06T14:20:33.453Z,4.40
2017-07-06T14:23:01.390Z,4.20
2017-07-06T14:25:29.364Z,4.70
2017-07-06T14:27:57.306Z,4.23
2017-07-06T14:30:25.235Z,4.37
2017-07-06T14:32:53.154Z,4.80
2017-07-06T14:35:21.109Z,5.00
2017-07-06T14:37:49.040Z,4.57
2017-07-06T14:40:16.979Z,4.77
2017-07-06T14:42:44.899Z,5.00
2017-07-06T14:45:12.830Z,4.83
2017-07-06T14:47:40.773Z,4.80
2017-07-06T14:50:08.692Z,5.07
2017-07-06T14:52:36.612Z,5.00
2017-07-06T14:55:04.567Z,4.70
2017-07-06T14:57:32.522Z,5.90
2017-07-06T15:00:00.467Z,6.87
2017-07-06T15:02:28.411Z,7.43
2017-07-06T15:04:56.347Z,7.40
2017-07-06T15:07:24.330Z,8.40
2017-07-06T15:09:52.266Z,9.00
2017-07-06T15:12:20.221Z,8.50
2017-07-06T15:14:48.170Z,9.00
2017-07-06T15:17:16.090Z,8.83
2017-07-06T15:19:44.025Z,8.83
2017-07-06T15:22:11.957Z,8.33
2017-07-06T15:24:39.927Z,9.40
2017-07-06T15:27:07.867Z,9.10
2017-07-06T15:29:35.813Z,8.90
2017-07-06T15:32:03.749Z,9.30
2017-07-06T15:34:31.704Z,9.67
2017-07-06T15:36:59.661Z,8.50
2017-07-06T15:39:27.598Z,10.50
2017-07-06T15:41:55.549Z,10.60
2017-07-06T15:44:23.525Z,10.37
2017-07-06T15:46:51.461Z,10.97
2017-07-06T15:49:19.390Z,11.27
2017-07-06T15:51:47.319Z,11.17
2017-07-06T15:54:15.260Z,12.20
2017-07-06T15:56:43.190Z,11.70
2017-07-06T15:59:11.122Z,12.10
2017-07-06T16:01:39.046Z,16.97
2017-07-06T16:04:07.007Z,14.63
2017-07-06T16:06:34.934Z,10.67
2017-07-06T16:09:02.945Z,12.07
2017-07-06T16:11:30.871Z,10.80
2017-07-06T16:13:58.820Z,11.70
2017-07-06T16:16:26.778Z,14.27
2017-07-06T16:18:54.706Z,14.30
2017-07-06T16:21:22.633Z,16.20
2017-07-06T16:23:50.553Z,18.57
2017-07-06T16:26:18.492Z,20.43
2017-07-06T16:28:46.570Z,12.17
2017-07-06T16:31:14.501Z,10.63
2017-07-06T16:33:42.755Z,10.40
2017-07-06T16:36:10.674Z,10.90
2017-07-06T16:38:38.601Z,9.67
2017-07-06T16:41:06.586Z,9.50
2017-07-06T16:43:34.513Z,9.10
2017-07-06T16:46:02.429Z,9.60
2017-07-06T16:48:30.370Z,9.90
2017-07-06T16:50:58.464Z,13.07
2017-07-06T16:53:26.431Z,9.60
2017-07-06T16:55:54.358Z,12.70
2017-07-06T16:58:22.284Z,15.73
2017-07-06T17:00:50.220Z,15.90
2017-07-06T17:03:18.132Z,15.33
2017-07-06T17:05:46.098Z,16.27
2017-07-06T17:08:14.017Z,15.43
2017-07-06T17:10:41.951Z,15.77
2017-07-06T17:13:10.454Z,15.07
2017-07-06T17:15:38.372Z,17.63
2017-07-06T17:18:06.714Z,14.30
2017-07-06T17:20:34.668Z,15.73
2017-07-06T17:23:02.613Z,15.00
2017-07-06T17:25:30.559Z,14.20
2017-07-06T17:27:58.489Z,15.10
2017-07-06T17:30:26.447Z,16.47
2017-07-06T17:32:54.386Z,16.20
2017-07-06T17:35:22.380Z,14.77
2017-07-06T17:37:51.290Z,10.87
2017-07-06T17:40:21.106Z,12.37
2017-07-06T17:42:49.472Z,10.40
2017-07-06T17:45:18.075Z,9.70
2017-07-06T17:47:46.664Z,8.30
2017-07-06T17:50:15.459Z,8.47
2017-07-06T17:52:43.494Z,9.80
2017-07-06T17:55:11.422Z,13.57
2017-07-06T17:57:39.366Z,13.80
2017-07-06T18:00:07.318Z,13.90
2017-07-06T18:02:35.270Z,14.27
2017-07-06T18:05:04.834Z,16.73
2017-07-06T18:07:34.242Z,16.67
2017-07-06T18:10:03.560Z,17.53
2017-07-06T18:12:33.154Z,20.33
2017-07-06T18:15:03.360Z,19.47
2017-07-06T18:17:32.504Z,22.20
2017-07-06T18:20:02.088Z,18.60
2017-07-06T18:22:30.087Z,18.50
2017-07-06T18:24:58.516Z,21.40
2017-07-06T18:27:26.451Z,19.50
2017-07-06T18:29:54.383Z,22.57
2017-07-06T18:32:22.306Z,20.37
2017-07-06T18:34:50.256Z,20.60
2017-07-06T18:37:18.246Z,20.00
2017-07-06T18:39:46.206Z,20.57
2017-07-06T18:42:14.146Z,20.57
2017-07-06T18:44:42.084Z,19.70
2017-07-06T18:47:10.054Z,22.60
2017-07-06T18:49:38.006Z,20.63
2017-07-06T18:52:05.945Z,23.63
2017-07-06T18:54:33.898Z,22.77
2017-07-06T18:57:01.835Z,19.50
2017-07-06T18:59:29.885Z,21.83
2017-07-06T19:01:57.840Z,20.27
2017-07-06T19:04:25.781Z,27.37
2017-07-06T19:06:53.705Z,23.97
2017-07-06T19:09:21.690Z,24.07
2017-07-06T19:11:49.616Z,25.10
2017-07-06T19:14:17.595Z,24.80
2017-07-06T19:16:45.526Z,24.60
2017-07-06T19:19:13.458Z,23.40
2017-07-06T19:21:41.390Z,23.47
2017-07-06T19:24:09.321Z,23.40
2017-07-06T19:26:37.265Z,25.20
2017-07-06T19:29:05.193Z,25.17
2017-07-06T19:31:33.161Z,22.20
2017-07-06T19:34:01.125Z,18.17
2017-07-06T19:36:29.079Z,15.70
2017-07-06T19:38:57.036Z,16.80
2017-07-06T19:41:24.974Z,15.73
2017-07-06T19:43:52.901Z,15.17
2017-07-06T19:46:20.832Z,13.50
2017-07-06T19:48:48.767Z,12.73
2017-07-06T19:51:16.719Z,12.90
2017-07-06T19:53:44.668Z,10.80
2017-07-06T19:56:12.606Z,12.30
2017-07-06T19:58:40.542Z,10.93
2017-07-06T20:01:08.463Z,10.50
2017-07-06T20:03:36.483Z,10.60
2017-07-06T20:06:04.406Z,10.53
2017-07-06T20:08:32.343Z,8.70
2017-07-06T20:11:00.285Z,9.47
2017-07-06T20:13:28.206Z,8.20
2017-07-06T20:15:56.170Z,7.73
2017-07-06T20:18:24.093Z,8.23
2017-07-06T20:20:52.013Z,7.60
2017-07-06T20:23:19.947Z,7.60
2017-07-06T20:25:48.039Z,7.60
2017-07-06T20:28:16.049Z,7.10
2017-07-06T20:30:44.018Z,7.10
2017-07-06T20:33:11.991Z,7.00
2017-07-06T20:35:39.914Z,6.80
2017-07-06T20:38:07.842Z,6.73
2017-07-06T20:40:36.690Z,7.00
2017-07-06T20:43:04.626Z,6.73
2017-07-06T20:45:32.535Z,7.17
2017-07-06T20:48:00.458Z,6.60
2017-07-06T20:50:28.376Z,6.80
2017-07-06T20:52:56.325Z,6.83
2017-07-06T20:55:24.262Z,6.23
2017-07-06T20:57:52.181Z,6.50
2017-07-06T21:00:20.109Z,6.03
2017-07-06T21:02:48.032Z,6.47
2017-07-06T21:05:15.988Z,6.37
2017-07-06T21:07:43.906Z,6.03
2017-07-06T21:10:11.815Z,6.27
2017-07-06T21:12:39.745Z,6.57
2017-07-06T21:15:07.661Z,6.10
2017-07-06T21:17:35.597Z,5.87
2017-07-06T21:20:03.512Z,6.20
2017-07-06T21:22:31.435Z,5.80
2017-07-06T21:24:59.369Z,5.87
2017-07-06T21:27:27.299Z,5.83
2017-07-06T21:29:55.220Z,5.90
2017-07-06T21:32:23.133Z,6.13
2017-07-06T21:34:51.053Z,5.80
2017-07-06T21:37:18.972Z,5.60
2017-07-06T21:39:46.905Z,5.50
2017-07-06T21:42:14.863Z,6.30
2017-07-06T21:44:42.790Z,6.27
2017-07-06T21:47:10.706Z,5.80
2017-07-06T21:49:38.622Z,5.97
2017-07-06T21:52:06.533Z,5.63
2017-07-06T21:54:34.523Z,5.60
2017-07-06T21:57:02.448Z,5.20
2017-07-06T21:59:30.368Z,5.43
2017-07-06T22:01:58.293Z,5.93
2017-07-06T22:04:26.225Z,5.80
2017-07-06T22:06:54.183Z,6.00
2017-07-06T22:09:22.106Z,5.63
2017-07-06T22:11:50.047Z,5.93
2017-07-06T22:14:17.979Z,5.60
2017-07-06T22:16:45.933Z,5.63
2017-07-06T22:19:13.877Z,5.60
2017-07-06T22:21:41.797Z,5.37
2017-07-06T22:24:09.918Z,5.47
2017-07-06T22:26:37.850Z,5.17
2017-07-06T22:29:05.783Z,5.30
2017-07-06T22:31:33.713Z,5.83
2017-07-06T22:34:01.638Z,5.20
2017-07-06T22:36:29.569Z,5.77
2017-07-06T22:38:57.494Z,4.60
2017-07-06T22:41:25.423Z,4.90
2017-07-06T22:43:53.526Z,5.30
2017-07-06T22:46:21.453Z,5.30
2017-07-06T22:48:49.376Z,5.23
2017-07-06T22:51:17.290Z,5.47
2017-07-06T22:53:45.213Z,4.63
2017-07-06T22:56:13.134Z,5.27
2017-07-06T22:58:41.064Z,4.43
2017-07-06T23:01:09.002Z,5.20
2017-07-06T23:03:36.913Z,5.00
2017-07-06T23:06:04.837Z,4.90
2017-07-06T23:08:32.754Z,5.07
2017-07-06T23:11:00.683Z,5.27
2017-07-06T23:13:29.043Z,5.30
2017-07-06T23:15:56.975Z,4.57
2017-07-06T23:18:24.909Z,4.90
2017-07-06T23:20:52.829Z,5.20
2017-07-06T23:23:20.753Z,4.77
2017-07-06T23:25:48.699Z,5.67
2017-07-06T23:28:16.629Z,4.47
2017-07-06T23:30:44.554Z,4.80
2017-07-06T23:33:12.483Z,5.40
2017-07-06T23:35:40.396Z,5.27
2017-07-06T23:38:08.333Z,5.07
2017-07-06T23:40:36.258Z,4.70
2017-07-06T23:43:04.174Z,5.30
2017-07-06T23:45:32.093Z,4.80
2017-07-06T23:48:00.018Z,5.70
2017-07-06T23:50:27.965Z,5.20
2017-07-06T23:52:55.883Z,5.43
2017-07-06T23:55:23.845Z,5.53
2017-07-06T23:57:51.748Z,6.13
